Time;durP1;ratioP1;P1;durP2;ratioP2;P2;SDS_P1;SDS_P2;PMS_P1;PMS_P2;Temp;Humidity;BMP_temperature;BMP_pressure;BME280_temperature;BME280_humidity;BME280_pressure;Samples;Min_cycle;Max_cycle;Signal;HPM_P1;HPM_P2
2022/09/19 00:01:20;;;;;;;4.47;1.40;;;8.80;99.90;;;;;;5034050;28;20646;-40
2022/09/19 00:03:50;;;;;;;6.27;1.60;;;8.80;99.90;;;;;;5033794;28;20225;-43
2022/09/19 00:06:16;;;;;;;6.00;1.50;;;8.80;99.90;;;;;;5033801;28;20201;-44
2022/09/19 00:08:44;;;;;;;3.73;1.20;;;8.80;99.90;;;;;;5033574;28;20176;-42
2022/09/19 00:11:11;;;;;;;2.23;1.47;;;8.80;99.90;;;;;;5033764;28;20214;-44
2022/09/19 00:13:45;;;;;;;4.63;1.80;;;8.80;99.90;;;;;;5033536;28;20534;-43
2022/09/19 00:16:12;;;;;;;6.60;1.60;;;8.80;99.90;;;;;;5033404;28;20169;-42
2022/09/19 00:18:38;;;;;;;3.03;1.47;;;8.80;99.90;;;;;;5033984;28;20580;-45
2022/09/19 00:21:03;;;;;;;5.33;1.47;;;8.80;99.90;;;;;;5033403;28;20185;-44
2022/09/19 00:26:17;;;;;;;5.00;1.47;;;8.80;99.90;;;;;;5033489;28;20258;-44
2022/09/19 00:28:45;;;;;;;8.33;1.70;;;8.80;99.90;;;;;;5033575;28;20592;-45
2022/09/19 00:31:18;;;;;;;3.63;1.73;;;8.70;99.90;;;;;;5033602;28;20177;-44
2022/09/19 00:33:46;;;;;;;10.07;1.90;;;8.80;99.90;;;;;;5033213;28;20187;-46
2022/09/19 00:36:12;;;;;;;5.73;1.40;;;8.80;99.90;;;;;;5033404;28;20195;-45
2022/09/19 00:38:37;;;;;;;5.27;1.60;;;8.80;99.90;;;;;;5033454;28;20643;-43
2022/09/19 00:41:03;;;;;;;5.30;1.50;;;8.80;99.90;;;;;;5033051;28;20192;-45
2022/09/19 00:44:25;;;;;;;3.57;1.50;;;8.80;99.90;;;;;;5033233;28;20181;-41
2022/09/19 00:46:59;;;;;;;3.83;1.30;;;8.80;99.90;;;;;;4997359;28;20225;-42
2022/09/19 00:49:29;;;;;;;5.93;1.60;;;8.80;99.90;;;;;;5033171;28;20195;-42
2022/09/19 00:51:59;;;;;;;4.20;1.53;;;8.70;99.90;;;;;;5033114;28;20227;-40
2022/09/19 00:54:42;;;;;;;9.47;1.97;;;8.70;99.90;;;;;;5033264;28;20166;-43
2022/09/19 00:57:10;;;;;;;7.67;1.43;;;8.70;99.90;;;;;;5032909;28;20666;-42
2022/09/19 00:59:40;;;;;;;4.40;1.67;;;8.70;99.90;;;;;;5033098;28;20647;-42
2022/09/19 01:02:08;;;;;;;2.87;1.47;;;8.70;99.90;;;;;;5033670;28;20189;-43
2022/09/19 01:04:38;;;;;;;8.57;1.50;;;8.60;99.90;;;;;;5033219;28;20219;-43
2022/09/19 01:07:53;;;;;;;8.03;1.73;;;8.60;99.90;;;;;;5033233;28;20274;-42
2022/09/19 01:10:34;;;;;;;8.27;1.67;;;8.60;99.90;;;;;;5033104;28;20234;-43
2022/09/19 01:13:09;;;;;;;9.30;2.43;;;8.60;99.90;;;;;;5033033;28;20160;-43
2022/09/19 01:15:53;;;;;;;5.20;1.60;;;8.60;99.90;;;;;;5032902;28;20576;-43
2022/09/19 01:18:24;;;;;;;5.33;1.70;;;8.60;99.90;;;;;;5033115;28;20276;-43
2022/09/19 01:24:41;;;;;;;9.60;1.80;;;8.60;99.90;;;;;;5033123;28;20164;-41
2022/09/19 01:27:17;;;;;;;8.07;1.70;;;8.60;99.90;;;;;;5032918;28;20208;-44
2022/09/19 01:30:07;;;;;;;7.90;1.73;;;8.50;99.90;;;;;;5032826;28;20157;-43
2022/09/19 01:32:37;;;;;;;6.43;1.90;;;8.50;99.90;;;;;;5029971;28;20200;-42
2022/09/19 01:35:07;;;;;;;7.70;2.30;;;8.50;99.90;;;;;;5033273;28;20252;-43
2022/09/19 01:37:45;;;;;;;7.43;1.70;;;8.50;99.90;;;;;;5032984;28;20269;-43
2022/09/19 01:40:13;;;;;;;4.57;1.27;;;8.50;99.90;;;;;;5033298;28;20240;-42
2022/09/19 01:42:57;;;;;;;9.10;1.73;;;8.50;99.90;;;;;;5032694;28;20230;-43
2022/09/19 01:45:36;;;;;;;6.03;1.60;;;8.50;99.90;;;;;;5033399;28;20563;-42
2022/09/19 01:48:18;;;;;;;8.87;1.60;;;8.50;99.90;;;;;;5033554;28;20557;-44
2022/09/19 01:51:17;;;;;;;4.57;1.47;;;8.50;99.90;;;;;;5032695;28;20523;-43
2022/09/19 01:54:01;;;;;;;5.03;1.40;;;8.50;99.90;;;;;;5033316;28;20216;-42
2022/09/19 01:57:02;;;;;;;3.43;1.50;;;8.50;99.90;;;;;;5036394;28;20216;-42
2022/09/19 02:00:06;;;;;;;4.63;1.60;;;8.50;99.90;;;;;;5036371;28;20614;-41
2022/09/19 02:02:38;;;;;;;8.80;2.17;;;8.50;99.90;;;;;;5032926;28;20201;-43
2022/09/19 02:05:13;;;;;;;10.30;1.90;;;8.50;99.90;;;;;;5036259;28;20590;-41
2022/09/19 02:07:51;;;;;;;6.37;2.20;;;8.50;99.90;;;;;;5036330;28;20266;-42
2022/09/19 02:10:43;;;;;;;8.57;1.50;;;8.50;99.90;;;;;;5036221;28;20169;-43
2022/09/19 02:13:11;;;;;;;5.23;1.50;;;8.50;99.90;;;;;;5032873;28;20193;-42
2022/09/19 02:15:39;;;;;;;6.17;2.03;;;8.50;99.90;;;;;;5036514;28;20234;-42
2022/09/19 02:18:13;;;;;;;12.03;1.67;;;8.50;99.90;;;;;;5035978;28;20189;-44
2022/09/19 02:20:41;;;;;;;5.20;1.37;;;8.50;99.90;;;;;;5036060;28;20179;-40
2022/09/19 02:23:24;;;;;;;4.73;1.80;;;8.50;99.90;;;;;;5034543;28;20177;-39
2022/09/19 02:25:52;;;;;;;4.60;1.57;;;8.50;99.90;;;;;;5035599;28;20172;-40
2022/09/19 02:28:41;;;;;;;5.90;2.00;;;8.50;99.90;;;;;;5035480;28;20213;-41
2022/09/19 02:31:08;;;;;;;6.37;1.83;;;8.50;99.90;;;;;;5035830;28;20173;-42
2022/09/19 02:33:35;;;;;;;6.87;2.17;;;8.50;99.90;;;;;;5035667;28;20216;-38
2022/09/19 02:36:04;;;;;;;6.33;1.53;;;8.50;99.90;;;;;;5036087;28;20264;-40
2022/09/19 02:38:36;;;;;;;5.57;1.70;;;8.50;99.90;;;;;;5035235;28;20259;-40
2022/09/19 02:41:17;;;;;;;7.53;1.90;;;8.50;99.90;;;;;;5035436;28;20188;-38
2022/09/19 02:43:49;;;;;;;6.33;1.53;;;8.50;99.90;;;;;;5035300;28;20223;-41
2022/09/19 02:46:52;;;;;;;6.07;2.53;;;8.50;99.90;;;;;;5035366;28;20222;-40
2022/09/19 02:49:38;;;;;;;7.33;2.57;;;8.50;99.90;;;;;;5035174;28;20192;-38
2022/09/19 02:52:14;;;;;;;10.33;2.30;;;8.50;99.90;;;;;;5035527;28;20183;-40
2022/09/19 02:54:43;;;;;;;9.53;2.27;;;8.50;99.90;;;;;;5035819;28;20207;-39
2022/09/19 02:57:13;;;;;;;6.50;2.00;;;8.50;99.90;;;;;;5035069;28;20216;-39
2022/09/19 02:59:42;;;;;;;4.07;1.80;;;8.50;99.90;;;;;;5035657;28;20262;-40
2022/09/19 03:02:17;;;;;;;4.87;2.13;;;8.40;99.90;;;;;;5035057;28;20185;-40
2022/09/19 03:04:50;;;;;;;11.87;2.40;;;8.40;99.90;;;;;;5034837;28;20224;-41
2022/09/19 03:07:27;;;;;;;5.80;2.07;;;8.40;99.90;;;;;;5034942;28;20223;-42
2022/09/19 03:10:06;;;;;;;4.60;2.30;;;8.40;99.90;;;;;;5035235;28;20211;-40
2022/09/19 03:12:51;;;;;;;8.53;2.10;;;8.40;99.90;;;;;;5035224;28;20577;-39
2022/09/19 03:15:24;;;;;;;11.87;2.23;;;8.30;99.90;;;;;;5035090;28;20162;-40
2022/09/19 03:17:52;;;;;;;5.37;2.60;;;8.40;99.90;;;;;;5034766;28;20208;-41
2022/09/19 03:20:19;;;;;;;11.57;2.07;;;8.30;99.90;;;;;;5034556;28;20185;-41
2022/09/19 03:22:45;;;;;;;6.83;1.87;;;8.30;99.90;;;;;;5034760;28;20180;-42
2022/09/19 03:25:14;;;;;;;6.50;2.20;;;8.30;99.90;;;;;;5036282;28;20661;-41
2022/09/19 03:27:40;;;;;;;4.33;1.97;;;8.30;99.90;;;;;;5034694;28;20224;-38
2022/09/19 03:30:09;;;;;;;5.93;2.63;;;8.30;99.90;;;;;;5034554;28;20646;-38
2022/09/19 03:32:35;;;;;;;6.93;2.20;;;8.30;99.90;;;;;;5034278;28;20184;-40
2022/09/19 03:35:04;;;;;;;4.67;2.03;;;8.20;99.90;;;;;;5034488;28;20652;-40
2022/09/19 03:37:32;;;;;;;8.33;2.20;;;8.20;99.90;;;;;;5034584;28;20240;-39
2022/09/19 03:39:58;;;;;;;6.97;2.10;;;8.20;99.90;;;;;;5034189;28;20655;-39
2022/09/19 03:42:25;;;;;;;7.73;2.27;;;8.30;99.90;;;;;;5034335;28;20181;-40
2022/09/19 03:44:52;;;;;;;6.37;2.27;;;8.30;99.90;;;;;;5034290;28;20264;-38
2022/09/19 03:47:21;;;;;;;8.17;2.20;;;8.20;99.90;;;;;;5033835;28;20278;-39
2022/09/19 03:49:50;;;;;;;4.47;1.80;;;8.30;99.90;;;;;;5034431;28;20263;-40
2022/09/19 03:52:17;;;;;;;4.07;1.80;;;8.20;99.90;;;;;;5034055;28;20176;-38
2022/09/19 03:54:44;;;;;;;7.50;2.37;;;8.30;99.90;;;;;;5033846;28;20606;-38
2022/09/19 03:57:10;;;;;;;8.43;2.10;;;8.30;99.90;;;;;;5033811;28;20228;-40
2022/09/19 03:59:38;;;;;;;5.63;2.30;;;8.20;99.90;;;;;;5034069;28;20760;-41
2022/09/19 04:02:04;;;;;;;4.67;1.87;;;8.20;99.90;;;;;;5033695;28;20646;-38
2022/09/19 04:04:30;;;;;;;8.70;2.00;;;8.30;99.90;;;;;;5034114;28;20181;-40
2022/09/19 04:06:55;;;;;;;9.37;2.33;;;8.30;99.90;;;;;;5033440;28;20231;-40
2022/09/19 04:09:21;;;;;;;7.10;2.27;;;8.30;99.90;;;;;;5033948;28;20669;-39
2022/09/19 04:11:47;;;;;;;10.60;1.97;;;8.30;99.90;;;;;;5034180;28;20243;-40
2022/09/19 04:14:13;;;;;;;12.80;2.40;;;8.30;99.90;;;;;;5033546;28;20176;-38
2022/09/19 04:16:38;;;;;;;4.77;2.10;;;8.30;99.90;;;;;;5033451;28;20311;-39
2022/09/19 04:19:10;;;;;;;7.60;2.23;;;8.30;99.90;;;;;;5033772;28;20658;-41
2022/09/19 04:21:36;;;;;;;8.20;1.93;;;8.40;99.90;;;;;;5033414;28;20674;-41
2022/09/19 04:24:02;;;;;;;9.83;1.93;;;8.40;99.90;;;;;;5033532;28;20200;-42
2022/09/19 04:26:27;;;;;;;6.43;1.80;;;8.30;99.90;;;;;;5033421;28;20208;-40
2022/09/19 04:28:53;;;;;;;9.57;2.30;;;8.40;99.90;;;;;;5033473;28;20173;-43
2022/09/19 04:31:18;;;;;;;10.83;2.60;;;8.40;99.90;;;;;;5033378;28;20184;-41
2022/09/19 04:33:44;;;;;;;4.93;1.97;;;8.40;99.90;;;;;;5033331;28;20157;-43
2022/09/19 04:36:11;;;;;;;7.07;2.23;;;8.40;99.90;;;;;;5033196;28;20185;-43
2022/09/19 04:38:36;;;;;;;6.37;2.00;;;8.40;99.90;;;;;;5033480;28;20173;-41
2022/09/19 04:41:03;;;;;;;9.40;2.07;;;8.50;99.90;;;;;;5033345;28;20173;-41
2022/09/19 04:43:29;;;;;;;10.03;2.37;;;8.50;99.90;;;;;;5033089;28;20661;-41
2022/09/19 04:45:56;;;;;;;9.10;2.07;;;8.50;99.90;;;;;;5031956;28;20702;-40
2022/09/19 04:48:22;;;;;;;8.27;1.93;;;8.50;99.90;;;;;;5033338;28;20587;-39
2022/09/19 04:50:50;;;;;;;10.40;2.00;;;8.60;99.90;;;;;;5033060;28;20219;-41
2022/09/19 04:53:18;;;;;;;3.77;1.80;;;8.60;99.90;;;;;;5032995;28;20658;-38
2022/09/19 04:55:48;;;;;;;11.90;2.00;;;8.60;99.90;;;;;;5033084;28;20263;-39
2022/09/19 04:58:15;;;;;;;9.70;2.13;;;8.60;99.90;;;;;;5033104;28;20247;-38
2022/09/19 05:00:41;;;;;;;10.57;2.13;;;8.60;99.90;;;;;;5031942;28;20188;-39
2022/09/19 05:03:15;;;;;;;5.33;1.77;;;8.70;99.90;;;;;;5032208;28;20177;-38
2022/09/19 05:05:50;;;;;;;7.50;1.87;;;8.70;99.90;;;;;;5033123;28;20165;-37
2022/09/19 05:08:18;;;;;;;10.47;1.90;;;8.70;99.90;;;;;;5033046;28;20579;-39
2022/09/19 05:10:45;;;;;;;6.00;1.93;;;8.70;99.90;;;;;;5033241;28;20181;-39
2022/09/19 05:13:11;;;;;;;8.30;1.80;;;8.80;99.90;;;;;;5033299;28;20178;-41
2022/09/19 05:15:40;;;;;;;10.97;1.57;;;8.80;99.90;;;;;;5033731;28;20345;-40
2022/09/19 05:18:05;;;;;;;10.70;2.13;;;8.80;99.90;;;;;;5031431;28;20685;-40
2022/09/19 05:20:31;;;;;;;7.30;2.20;;;8.80;99.90;;;;;;5033194;28;20177;-42
2022/09/19 05:23:00;;;;;;;7.70;1.67;;;8.80;99.90;;;;;;5033131;28;20227;-40
2022/09/19 05:25:27;;;;;;;12.03;2.90;;;8.90;99.90;;;;;;5033019;28;20214;-43
2022/09/19 05:27:54;;;;;;;6.87;1.70;;;8.90;99.90;;;;;;5032980;28;20208;-43
2022/09/19 05:30:22;;;;;;;8.83;1.90;;;8.90;99.90;;;;;;5036469;28;20223;-43
2022/09/19 05:32:48;;;;;;;8.07;2.13;;;8.90;99.90;;;;;;5036587;28;20165;-44
2022/09/19 05:35:14;;;;;;;7.23;1.93;;;8.90;99.90;;;;;;5036835;28;20184;-42
2022/09/19 05:37:45;;;;;;;14.93;2.03;;;8.90;99.90;;;;;;5036817;28;20686;-42
2022/09/19 05:40:11;;;;;;;5.03;1.40;;;9.00;99.90;;;;;;5036806;28;20200;-41
2022/09/19 05:42:43;;;;;;;8.63;1.90;;;9.00;99.90;;;;;;5037073;28;20220;-40
2022/09/19 05:45:10;;;;;;;10.33;1.83;;;9.00;99.90;;;;;;5036497;28;20235;-43
2022/09/19 05:47:39;;;;;;;7.83;1.67;;;9.00;99.90;;;;;;5036487;28;20242;-42
2022/09/19 05:50:07;;;;;;;7.03;1.80;;;9.10;99.90;;;;;;5036673;28;20610;-41
2022/09/19 05:55:21;;;;;;;8.20;1.60;;;9.10;99.90;;;;;;5039542;28;20634;-41
2022/09/19 05:57:52;;;;;;;8.83;1.50;;;9.10;99.90;;;;;;5037728;28;20221;-42
2022/09/19 06:00:19;;;;;;;6.83;2.30;;;9.20;99.90;;;;;;5036948;28;20184;-42
2022/09/19 06:02:51;;;;;;;6.77;1.87;;;9.20;99.90;;;;;;5036780;28;20185;-43
2022/09/19 06:05:17;;;;;;;7.87;1.47;;;9.20;99.90;;;;;;5036543;28;20263;-43
2022/09/19 06:07:43;;;;;;;10.37;2.90;;;9.30;99.90;;;;;;5036511;28;20226;-43
2022/09/19 06:10:08;;;;;;;9.90;2.00;;;9.30;99.90;;;;;;5036100;28;20524;-42
2022/09/19 06:12:34;;;;;;;9.60;1.83;;;9.30;99.90;;;;;;5036138;28;20213;-44
2022/09/19 06:15:00;;;;;;;10.53;1.87;;;9.30;99.90;;;;;;5036239;28;20177;-42
2022/09/19 06:17:27;;;;;;;8.07;2.00;;;9.40;99.90;;;;;;5035761;28;20205;-41
2022/09/19 06:19:52;;;;;;;7.73;1.67;;;9.40;99.90;;;;;;5036190;28;20177;-41
2022/09/19 06:22:18;;;;;;;6.23;1.73;;;9.40;99.90;;;;;;5036400;28;20596;-42
2022/09/19 06:24:43;;;;;;;11.00;1.97;;;9.40;99.90;;;;;;5036016;28;20180;-44
2022/09/19 06:27:09;;;;;;;7.77;2.47;;;9.50;99.90;;;;;;5035638;28;20258;-41
2022/09/19 06:29:34;;;;;;;11.20;2.10;;;9.50;99.90;;;;;;5035850;28;20169;-41
2022/09/19 06:32:02;;;;;;;9.63;2.47;;;9.50;99.90;;;;;;5035560;28;20538;-41
2022/09/19 06:34:28;;;;;;;10.33;1.63;;;9.60;99.90;;;;;;5035556;28;20188;-43
2022/09/19 06:36:53;;;;;;;7.47;1.63;;;9.60;99.90;;;;;;5034228;28;20201;-43
2022/09/19 06:39:19;;;;;;;8.23;1.80;;;9.60;99.90;;;;;;5035389;28;20181;-44
2022/09/19 06:41:47;;;;;;;9.87;1.90;;;9.60;99.90;;;;;;5035466;28;20179;-41
2022/09/19 06:44:13;;;;;;;9.77;1.90;;;9.70;99.90;;;;;;5035535;28;20591;-42
2022/09/19 06:46:39;;;;;;;6.27;1.57;;;9.70;99.90;;;;;;5035252;28;20295;-42
2022/09/19 06:49:07;;;;;;;6.10;1.53;;;9.70;99.90;;;;;;5035290;28;20337;-40
2022/09/19 06:51:33;;;;;;;11.00;1.80;;;9.80;99.90;;;;;;5035446;28;20181;-42
2022/09/19 06:53:59;;;;;;;8.97;2.00;;;9.80;99.90;;;;;;5035689;28;20177;-42
2022/09/19 06:56:24;;;;;;;5.77;1.57;;;9.90;99.90;;;;;;5035292;28;20198;-42
2022/09/19 06:58:50;;;;;;;10.37;2.07;;;9.90;99.90;;;;;;5035155;28;20179;-42
2022/09/19 07:01:16;;;;;;;7.57;1.33;;;10.00;99.90;;;;;;5035247;28;20216;-42
2022/09/19 07:03:42;;;;;;;7.37;1.87;;;10.00;99.90;;;;;;5035598;28;20209;-43
2022/09/19 07:06:07;;;;;;;10.20;1.50;;;10.00;99.90;;;;;;5035321;28;20543;-44
2022/09/19 07:08:33;;;;;;;5.67;1.80;;;10.10;99.90;;;;;;5035224;28;20255;-41
2022/09/19 07:10:59;;;;;;;13.33;1.90;;;10.20;99.90;;;;;;5034700;28;20185;-43
2022/09/19 07:13:24;;;;;;;10.07;2.30;;;10.20;99.90;;;;;;5034719;28;20211;-44
2022/09/19 07:15:50;;;;;;;7.77;2.17;;;10.30;99.90;;;;;;5035028;28;20184;-42
2022/09/19 07:18:15;;;;;;;6.23;1.43;;;10.30;99.90;;;;;;5034790;28;20295;-41
2022/09/19 07:20:41;;;;;;;9.47;1.77;;;10.40;99.90;;;;;;5034672;28;20177;-42
2022/09/19 07:23:14;;;;;;;5.63;1.87;;;10.50;99.90;;;;;;5034634;28;20184;-43
2022/09/19 07:25:42;;;;;;;10.93;2.10;;;10.50;99.90;;;;;;5034916;28;20189;-42
2022/09/19 07:28:11;;;;;;;11.97;1.77;;;10.50;99.90;;;;;;5034341;28;20255;-42
2022/09/19 07:30:37;;;;;;;6.00;1.57;;;10.60;99.90;;;;;;5034628;28;20200;-43
2022/09/19 07:33:07;;;;;;;9.53;2.17;;;10.70;99.90;;;;;;5034504;28;20196;-43
2022/09/19 07:35:35;;;;;;;9.63;2.03;;;10.70;99.90;;;;;;5034728;28;20260;-41
2022/09/19 07:38:01;;;;;;;12.17;2.50;;;10.80;99.90;;;;;;5034481;28;20205;-43
2022/09/19 07:40:27;;;;;;;8.03;2.03;;;10.90;99.90;;;;;;5034746;28;20256;-43
2022/09/19 07:42:57;;;;;;;6.50;1.50;;;10.90;99.90;;;;;;5034743;28;20709;-42
2022/09/19 07:45:23;;;;;;;11.17;2.43;;;11.00;99.90;;;;;;5035330;28;20253;-43
2022/09/19 07:47:48;;;;;;;10.00;1.97;;;11.10;99.90;;;;;;5034366;28;20344;-42
2022/09/19 07:50:17;;;;;;;7.57;1.90;;;11.20;99.90;;;;;;5034428;28;20256;-43
2022/09/19 07:52:46;;;;;;;7.50;1.70;;;11.30;99.90;;;;;;5033835;28;20166;-44
2022/09/19 07:55:13;;;;;;;11.57;2.43;;;11.40;99.90;;;;;;5035194;28;20186;-42
2022/09/19 07:57:52;;;;;;;8.30;1.83;;;11.50;99.90;;;;;;5034439;28;20205;-42
2022/09/19 08:00:18;;;;;;;14.37;2.17;;;11.50;99.90;;;;;;5034448;28;20174;-42
2022/09/19 08:02:51;;;;;;;11.77;3.17;;;11.50;99.90;;;;;;5034458;28;20178;-44
2022/09/19 08:05:17;;;;;;;9.90;2.40;;;11.60;99.90;;;;;;5034081;28;20179;-44
2022/09/19 08:07:43;;;;;;;8.13;1.93;;;11.70;99.90;;;;;;5033993;28;20223;-42
2022/09/19 08:10:09;;;;;;;7.50;1.87;;;11.80;99.90;;;;;;5033764;28;20181;-44
2022/09/19 08:12:34;;;;;;;10.20;1.83;;;11.80;99.90;;;;;;5034189;28;20212;-44
2022/09/19 08:15:01;;;;;;;8.50;1.40;;;11.90;99.90;;;;;;5033729;28;20262;-42
2022/09/19 08:17:26;;;;;;;10.57;1.80;;;12.00;99.90;;;;;;5033791;28;20203;-43
2022/09/19 08:19:52;;;;;;;6.10;1.50;;;12.10;99.90;;;;;;5033625;28;20543;-42
2022/09/19 08:22:18;;;;;;;8.70;2.13;;;12.10;99.90;;;;;;5033828;28;20182;-41
2022/09/19 08:24:43;;;;;;;7.00;1.57;;;12.10;99.90;;;;;;5034086;28;20705;-42
2022/09/19 08:27:10;;;;;;;9.77;1.87;;;12.30;99.90;;;;;;5033441;28;20750;-43
2022/09/19 08:29:37;;;;;;;9.83;2.00;;;12.30;99.90;;;;;;5033464;28;20652;-41
2022/09/19 08:32:02;;;;;;;4.40;1.50;;;12.40;99.90;;;;;;5033734;28;20179;-41
2022/09/19 08:34:28;;;;;;;8.80;1.93;;;12.50;99.90;;;;;;5033718;28;20575;-42
2022/09/19 08:36:58;;;;;;;10.10;2.30;;;12.50;99.90;;;;;;5033659;28;20207;-43
2022/09/19 08:39:25;;;;;;;14.47;2.53;;;12.60;99.90;;;;;;5033600;28;20175;-41
2022/09/19 08:42:21;;;;;;;9.47;1.90;;;12.60;99.90;;;;;;5033571;28;20187;-42
2022/09/19 08:44:49;;;;;;;14.10;2.50;;;12.70;99.90;;;;;;5033701;28;20169;-44
2022/09/19 08:47:21;;;;;;;10.40;2.00;;;12.80;99.90;;;;;;5033911;28;20204;-42
2022/09/19 08:49:59;;;;;;;5.53;1.43;;;12.80;99.90;;;;;;5033410;28;20271;-41
2022/09/19 08:52:41;;;;;;;9.53;2.13;;;12.80;99.90;;;;;;5034165;28;20176;-44
2022/09/19 08:55:14;;;;;;;4.83;1.70;;;13.00;99.90;;;;;;5031936;28;20169;-42
2022/09/19 08:57:54;;;;;;;5.53;1.70;;;13.00;99.90;;;;;;5033084;28;20209;-43
2022/09/19 09:00:22;;;;;;;12.33;1.77;;;13.10;99.90;;;;;;5033300;28;20168;-43
2022/09/19 09:02:51;;;;;;;8.40;2.00;;;13.10;99.90;;;;;;5032648;28;20189;-44
2022/09/19 09:06:02;;;;;;;6.63;2.03;;;13.10;99.90;;;;;;5038424;28;20233;-43
2022/09/19 09:08:39;;;;;;;7.70;1.50;;;13.20;99.90;;;;;;5036769;28;20216;-42
2022/09/19 09:11:22;;;;;;;8.27;1.90;;;13.30;99.90;;;;;;5037419;28;20223;-43
2022/09/19 09:14:12;;;;;;;6.20;1.70;;;13.20;99.90;;;;;;5037531;28;20210;-44
2022/09/19 09:16:57;;;;;;;9.50;2.07;;;13.20;99.90;;;;;;5037308;28;20200;-44
2022/09/19 09:19:38;;;;;;;10.40;1.73;;;13.30;99.90;;;;;;5037281;28;20479;-43
2022/09/19 09:22:30;;;;;;;10.77;2.10;;;13.40;99.90;;;;;;5037235;28;20252;-43
2022/09/19 09:25:29;;;;;;;12.20;2.03;;;13.40;99.90;;;;;;5037181;28;20168;-42
2022/09/19 09:28:06;;;;;;;11.27;2.07;;;13.50;99.90;;;;;;5036736;28;20689;-43
2022/09/19 09:30:39;;;;;;;11.93;1.80;;;13.60;99.90;;;;;;5037157;28;20153;-42
2022/09/19 09:33:29;;;;;;;6.87;1.60;;;13.70;99.90;;;;;;5037047;28;20184;-44
2022/09/19 09:36:10;;;;;;;12.27;2.77;;;13.70;99.90;;;;;;5036750;28;20243;-43
2022/09/19 09:39:06;;;;;;;8.70;2.00;;;13.60;99.90;;;;;;5037166;28;20161;-44
2022/09/19 09:41:45;;;;;;;7.97;1.77;;;13.60;99.90;;;;;;5037061;28;20590;-42
2022/09/19 09:44:13;;;;;;;9.10;1.97;;;13.60;99.90;;;;;;5036942;28;20161;-42
2022/09/19 09:46:52;;;;;;;11.50;2.30;;;13.70;99.90;;;;;;5036695;28;20232;-42
2022/09/19 09:49:22;;;;;;;6.20;1.80;;;13.80;99.90;;;;;;5036657;28;20181;-43
2022/09/19 09:52:22;;;;;;;12.83;2.10;;;14.00;99.90;;;;;;5036545;28;20177;-42
2022/09/19 09:58:05;;;;;;;10.43;1.60;;;14.00;99.90;;;;;;5044478;28;20226;-44
2022/09/19 10:03:35;;;;;;;10.03;1.50;;;14.00;99.90;;;;;;5036609;28;20248;-42
2022/09/19 10:06:15;;;;;;;8.03;1.23;;;14.00;99.90;;;;;;5036387;28;20155;-46
2022/09/19 10:09:00;;;;;;;4.53;1.23;;;14.00;99.90;;;;;;5036374;28;20163;-44
2022/09/19 10:11:34;;;;;;;6.77;1.50;;;13.90;99.90;;;;;;5036250;28;20166;-44
2022/09/19 10:14:04;;;;;;;6.57;1.70;;;13.80;99.90;;;;;;5035891;28;20522;-44
2022/09/19 10:16:32;;;;;;;6.07;1.47;;;13.80;99.90;;;;;;5035494;28;20225;-45
2022/09/19 10:19:14;;;;;;;5.17;1.33;;;13.70;99.90;;;;;;5036135;28;20188;-44
2022/09/19 10:21:40;;;;;;;9.83;2.33;;;13.80;99.90;;;;;;5036654;28;20662;-42
2022/09/19 10:24:43;;;;;;;5.07;1.30;;;13.90;99.90;;;;;;5035910;28;20263;-44
2022/09/19 10:27:33;;;;;;;6.67;1.60;;;14.00;99.90;;;;;;5035843;28;20217;-41
2022/09/19 10:30:12;;;;;;;10.90;1.43;;;14.10;99.90;;;;;;5032390;28;20553;-43
2022/09/19 10:32:38;;;;;;;7.13;1.53;;;14.20;99.90;;;;;;5035834;28;20166;-42
2022/09/19 10:35:37;;;;;;;8.57;1.60;;;14.20;99.90;;;;;;5035787;28;20184;-46
2022/09/19 10:38:16;;;;;;;5.90;1.93;;;14.30;99.90;;;;;;5035753;28;20204;-46
2022/09/19 10:40:57;;;;;;;10.67;1.83;;;14.40;99.90;;;;;;5035799;28;20163;-46
2022/09/19 10:43:45;;;;;;;6.83;1.60;;;14.50;99.90;;;;;;5035688;28;20172;-45
2022/09/19 10:46:18;;;;;;;8.27;1.63;;;14.60;99.90;;;;;;5035434;28;20164;-46
2022/09/19 10:48:56;;;;;;;3.30;1.00;;;14.70;99.90;;;;;;5035552;28;20170;-45
2022/09/19 10:51:35;;;;;;;8.83;1.77;;;14.90;99.90;;;;;;5035345;28;20296;-44
2022/09/19 10:54:09;;;;;;;9.80;1.67;;;15.10;99.90;;;;;;5035868;28;20255;-46
2022/09/19 10:56:34;;;;;;;7.63;1.20;;;15.30;99.90;;;;;;5035093;28;20221;-43
2022/09/19 10:59:03;;;;;;;7.27;2.10;;;15.50;99.90;;;;;;5035094;28;20180;-44
2022/09/19 11:01:29;;;;;;;10.47;1.27;;;15.70;99.90;;;;;;5035338;28;20209;-44
2022/09/19 11:04:24;;;;;;;9.70;1.67;;;15.80;99.90;;;;;;5035332;28;20177;-46
2022/09/19 11:07:02;;;;;;;11.63;2.33;;;16.00;99.90;;;;;;5030629;28;20581;-45
2022/09/19 11:09:35;;;;;;;15.40;2.43;;;16.00;99.90;;;;;;5035333;28;20557;-45
2022/09/19 11:12:05;;;;;;;7.83;1.90;;;16.00;99.90;;;;;;5035195;28;20165;-45
2022/09/19 11:14:42;;;;;;;9.00;1.63;;;16.00;99.90;;;;;;5035149;28;20189;-44
2022/09/19 11:17:51;;;;;;;11.20;1.80;;;16.00;99.90;;;;;;5035370;28;20243;-46
2022/09/19 11:20:49;;;;;;;5.97;1.30;;;16.10;99.90;;;;;;5036403;28;20157;-44
2022/09/19 11:23:32;;;;;;;7.57;1.80;;;16.10;99.90;;;;;;5037189;28;20153;-44
2022/09/19 11:26:42;;;;;;;6.83;1.70;;;16.30;99.90;;;;;;5034280;28;20193;-46
2022/09/19 11:29:44;;;;;;;12.57;1.97;;;16.40;99.90;;;;;;5029151;28;20227;-44
2022/09/19 11:32:49;;;;;;;6.30;1.50;;;16.30;99.90;;;;;;5034807;28;20189;-45
2022/09/19 11:35:25;;;;;;;9.53;1.90;;;16.30;99.90;;;;;;5034737;28;20157;-44
2022/09/19 11:38:20;;;;;;;10.03;1.47;;;16.30;99.90;;;;;;5034489;28;20693;-45
2022/09/19 11:41:19;;;;;;;6.07;1.57;;;16.30;99.90;;;;;;5035151;28;20184;-45
2022/09/19 11:44:03;;;;;;;6.03;1.40;;;16.30;99.90;;;;;;5027469;28;20189;-44
2022/09/19 11:46:42;;;;;;;6.67;1.40;;;16.30;99.90;;;;;;5034228;28;20192;-45
2022/09/19 11:49:30;;;;;;;9.70;1.50;;;16.30;99.90;;;;;;5034587;28;20169;-47
2022/09/19 11:52:12;;;;;;;11.60;2.80;;;16.10;99.90;;;;;;5034506;28;20269;-44
2022/09/19 11:55:08;;;;;;;10.50;1.60;;;16.00;99.90;;;;;;5034626;28;20670;-43
2022/09/19 11:57:46;;;;;;;5.47;1.43;;;16.10;99.90;;;;;;5034440;28;20216;-45
2022/09/19 12:00:25;;;;;;;9.63;2.50;;;16.10;99.90;;;;;;5034366;28;20247;-44
2022/09/19 12:03:17;;;;;;;11.20;1.70;;;16.10;99.90;;;;;;5034547;28;20180;-46
2022/09/19 12:06:03;;;;;;;5.33;1.70;;;16.20;99.90;;;;;;5034181;28;20164;-46
2022/09/19 12:08:52;;;;;;;7.40;1.40;;;16.30;99.90;;;;;;5034317;28;20201;-45
2022/09/19 12:11:26;;;;;;;6.37;1.30;;;16.50;99.90;;;;;;5034435;28;20165;-45
2022/09/19 12:13:57;;;;;;;6.63;1.30;;;16.80;99.90;;;;;;5034490;28;20165;-45
2022/09/19 12:16:36;;;;;;;2.10;0.90;;;16.80;99.90;;;;;;5034088;28;20161;-46
2022/09/19 12:19:10;;;;;;;9.87;1.53;;;17.00;99.90;;;;;;5034922;28;20169;-46
2022/09/19 12:21:42;;;;;;;7.60;1.30;;;17.00;99.90;;;;;;5034073;28;20172;-47
2022/09/19 12:27:33;;;;;;;2.17;0.63;;;16.90;99.90;;;;;;5033712;28;20280;-45
2022/09/19 12:30:06;;;;;;;1.93;0.60;;;16.50;99.90;;;;;;5034033;28;20157;-45
2022/09/19 12:33:02;;;;;;;6.07;0.90;;;15.80;99.90;;;;;;5034632;28;20161;-45
2022/09/19 12:35:40;;;;;;;2.60;0.70;;;15.30;99.90;;;;;;5034185;28;20172;-47
2022/09/19 12:38:27;;;;;;;5.23;1.20;;;14.80;99.90;;;;;;5033604;28;20197;-46
2022/09/19 12:41:16;;;;;;;2.33;0.63;;;14.50;99.90;;;;;;5036807;28;20655;-46
2022/09/19 12:43:54;;;;;;;3.27;0.93;;;13.80;99.90;;;;;;5034207;28;20249;-46
2022/09/19 12:46:58;;;;;;;11.60;5.90;;;13.20;99.90;;;;;;5038525;28;20161;-47
2022/09/19 12:49:56;;;;;;;2.37;0.80;;;12.90;99.90;;;;;;5035898;28;20248;-47
2022/09/19 12:52:41;;;;;;;3.33;0.80;;;12.70;99.90;;;;;;5035753;28;20169;-44
2022/09/19 12:55:28;;;;;;;5.80;1.00;;;12.70;99.90;;;;;;5034355;28;20173;-46
2022/09/19 12:58:03;;;;;;;2.63;1.00;;;12.70;99.90;;;;;;5033945;28;20312;-45
2022/09/19 13:00:35;;;;;;;1.53;0.80;;;12.70;99.90;;;;;;5034085;28;20698;-47
2022/09/19 13:03:22;;;;;;;6.37;1.30;;;12.90;99.90;;;;;;5034409;28;20200;-45
2022/09/19 13:06:00;;;;;;;3.93;1.03;;;12.90;99.90;;;;;;5032348;28;20264;-47
2022/09/19 13:08:39;;;;;;;3.90;1.20;;;13.10;99.90;;;;;;5033864;28;20208;-45
2022/09/19 13:11:08;;;;;;;4.63;1.13;;;13.20;99.90;;;;;;5034038;28;20550;-47
2022/09/19 13:13:47;;;;;;;4.77;1.40;;;13.30;99.90;;;;;;5033593;28;20573;-47
2022/09/19 13:16:16;;;;;;;3.40;1.23;;;13.40;99.90;;;;;;5033626;28;20156;-45
2022/09/19 13:24:29;;;;;;;8.93;1.33;;;13.60;99.90;;;;;;5034163;28;20161;-47
2022/09/19 13:26:56;;;;;;;4.43;1.07;;;13.80;99.90;;;;;;5033240;28;20208;-44
2022/09/19 13:29:27;;;;;;;6.07;1.30;;;13.90;99.90;;;;;;5034000;28;20181;-45
2022/09/19 13:31:55;;;;;;;4.77;1.30;;;14.10;99.90;;;;;;5033791;28;20185;-44
2022/09/19 13:34:33;;;;;;;3.83;1.03;;;14.10;99.90;;;;;;5033562;28;20260;-46
2022/09/19 13:37:02;;;;;;;5.37;1.20;;;14.20;99.90;;;;;;5033570;28;20201;-43
2022/09/19 13:40:06;;;;;;;2.87;1.00;;;14.30;99.90;;;;;;5033450;28;20185;-46
2022/09/19 13:42:41;;;;;;;2.60;0.80;;;14.30;99.90;;;;;;5025590;28;20283;-43
2022/09/19 13:45:31;;;;;;;4.43;0.93;;;14.30;99.90;;;;;;5033547;28;20618;-44
2022/09/19 13:48:27;;;;;;;4.03;1.20;;;14.40;99.90;;;;;;5033432;28;20204;-46
2022/09/19 13:51:03;;;;;;;4.33;1.27;;;14.40;99.90;;;;;;5034519;28;20193;-46